KADW/ADW METAR and TAF weather

Enter ICAO airport designator
Station Type Date Time Source
KADW METAR 2020/04/08 21:56 UTC NOAA

KADW 082156Z AUTO 31009KT 10SM FEW110 24/10 A2958 RMK AO2 SLP022 T02350095 $


Station Type Date Time Source
KADW Decoded METAR 2020/04/08 21:56 UTC NOAA

Camp Springs / Andrews Air Force Base, MD, United States (KADW) 38-49N 076-51W 88M
Apr 08, 2020 - 05:56 PM EDT / 2020.04.08 2156 UTC
Wind: from the NW (310 degrees) at 10 MPH (9 KT):0
Visibility: 10 mile(s):0
Sky conditions: mostly clear
Temperature: 74.3 F (23.5 C)
Dew Point: 49.1 F (9.5 C)
Relative Humidity: 40%
Pressure (altimeter): 29.58 in. Hg (1001 hPa)
ob: KADW 082156Z AUTO 31009KT 10SM FEW110 24/10 A2958 RMK AO2 SLP022 T02350095
cycle: 22

Station Type Date Time Source
KADW TAF 2020/04/08 19:29 UTC NOAA

TAF
AMD KADW 081909Z 0819/0923 30010G15KT 9999 FEW035 QNH2951INS
TEMPO 0817/0821 29010G25KT
BECMG 0823/0824 33006KT 9999 SKC QNH2934INS
BECMG 0910/0911 21010G25KT 9999 FEW050 SCT220 QNH2931INS
TEMPO 0911/0913 24015G35KT 9000 -RA VCTS BKN050CB OVC060
BECMG 0916/0917 28015G35KT 9999 NSW SKC 530003 QNH2928INS
BECMG 0918/0920 30020G35KT 9999 SCT060 BKN075 520003 QNH2927INS TX25/0820Z TN12/0909Z

Example: see airport list